Time;durP1;ratioP1;P1;durP2;ratioP2;P2;SDS_P1;SDS_P2;PMS_P1;PMS_P2;Temp;Humidity;BMP_temperature;BMP_pressure;BME280_temperature;BME280_humidity;BME280_pressure;Samples;Min_cycle;Max_cycle;Signal;HPM_P1;HPM_P2
2023/01/04 00:01:08;;;;;;;16.15;2.47;;;;;;;7.84;100.00;101841.25;5040334;28;20130;-72
2023/01/04 00:03:34;;;;;;;10.40;3.53;;;;;;;7.90;100.00;101845.44;5036673;28;20076;-72
2023/01/04 00:06:02;;;;;;;7.35;2.20;;;;;;;7.87;100.00;101837.59;5031319;28;20045;-72
2023/01/04 00:08:28;;;;;;;7.95;2.65;;;;;;;7.89;100.00;101826.00;5037604;28;20068;-72
2023/01/04 00:11:05;;;;;;;14.98;3.28;;;;;;;7.94;100.00;101823.19;5031038;28;20052;-72
2023/01/04 00:13:32;;;;;;;9.50;3.05;;;;;;;7.93;100.00;101826.72;5047404;28;20130;-73
2023/01/04 00:15:58;;;;;;;5.15;2.63;;;;;;;7.95;100.00;101824.91;5039350;28;20041;-73
2023/01/04 00:18:24;;;;;;;9.85;3.17;;;;;;;7.94;100.00;101821.38;5026691;28;20103;-72
2023/01/04 00:20:49;;;;;;;13.38;3.35;;;;;;;7.96;100.00;101806.25;5037884;28;20053;-73
2023/01/04 00:23:14;;;;;;;15.05;2.92;;;;;;;7.92;100.00;101811.72;5031577;28;20103;-73
2023/01/04 00:25:40;;;;;;;18.33;4.43;;;;;;;7.88;100.00;101808.34;5035568;28;20049;-73
2023/01/04 00:28:06;;;;;;;20.30;3.83;;;;;;;7.82;100.00;101795.25;5027065;28;20469;-73
2023/01/04 00:30:31;;;;;;;6.82;3.20;;;;;;;7.82;100.00;101800.56;5034689;28;20036;-73
2023/01/04 00:32:57;;;;;;;11.23;3.35;;;;;;;7.86;100.00;101786.28;5036876;28;20061;-74
2023/01/04 00:35:23;;;;;;;9.80;3.47;;;;;;;7.80;100.00;101789.16;5033239;28;20092;-73
2023/01/04 00:37:48;;;;;;;11.65;2.67;;;;;;;7.86;100.00;101788.94;5034551;28;20084;-73
2023/01/04 00:40:14;;;;;;;8.85;3.38;;;;;;;7.82;100.00;101779.34;5032518;28;20049;-72
2023/01/04 00:42:39;;;;;;;9.10;3.17;;;;;;;7.82;100.00;101784.66;5027606;28;20049;-73
2023/01/04 00:45:05;;;;;;;11.55;2.72;;;;;;;7.78;100.00;101780.38;5033544;28;20103;-73
2023/01/04 00:47:31;;;;;;;10.27;3.15;;;;;;;7.80;100.00;101767.91;5031726;28;20053;-73
2023/01/04 00:49:56;;;;;;;7.35;3.20;;;;;;;7.77;100.00;101768.00;5019862;28;20100;-73
2023/01/04 00:52:22;;;;;;;24.73;4.55;;;;;;;7.83;100.00;101767.81;5027140;28;20119;-72
2023/01/04 00:54:47;;;;;;;9.48;2.95;;;;;;;7.82;100.00;101763.41;5033344;28;20041;-73
2023/01/04 00:57:12;;;;;;;9.27;3.20;;;;;;;7.82;100.00;101757.22;5033616;28;20750;-72
2023/01/04 00:59:38;;;;;;;7.07;3.08;;;;;;;7.86;100.00;101742.91;5037146;28;20064;-72
2023/01/04 01:02:03;;;;;;;10.35;2.83;;;;;;;7.85;100.00;101746.50;5023769;28;20051;-72
2023/01/04 01:04:29;;;;;;;6.00;2.92;;;;;;;7.75;100.00;101745.97;5034526;28;20083;-73
2023/01/04 01:06:54;;;;;;;15.43;3.45;;;;;;;7.79;100.00;101736.97;5033503;28;20053;-72
2023/01/04 01:09:23;;;;;;;14.55;4.00;;;;;;;7.82;100.00;101733.34;5033334;28;20041;-72
2023/01/04 01:11:49;;;;;;;14.90;4.10;;;;;;;7.79;100.00;101718.41;5038687;28;20092;-72
2023/01/04 01:14:19;;;;;;;5.35;2.95;;;;;;;7.79;100.00;101718.41;5033217;28;20049;-72
2023/01/04 01:16:45;;;;;;;14.05;3.45;;;;;;;7.75;100.00;101709.69;5030870;28;20064;-73
2023/01/04 01:19:11;;;;;;;14.05;3.58;;;;;;;7.82;100.00;101699.69;5027432;28;20143;-72
2023/01/04 01:21:36;;;;;;;13.13;3.95;;;;;;;7.85;100.00;101714.66;5040648;28;20822;-72
2023/01/04 01:24:02;;;;;;;6.97;3.28;;;;;;;7.82;100.00;101714.75;5038123;28;20472;-72
2023/01/04 01:26:28;;;;;;;23.60;5.05;;;;;;;7.85;100.00;101704.88;5032144;28;20056;-71
2023/01/04 01:28:54;;;;;;;12.45;3.47;;;;;;;7.88;100.00;101707.44;5038622;28;20618;-71
2023/01/04 01:31:24;;;;;;;6.75;3.28;;;;;;;7.86;100.00;101703.09;5034785;28;20911;-71
2023/01/04 01:33:51;;;;;;;9.73;3.60;;;;;;;7.89;100.00;101703.84;5035135;28;20090;-71
2023/01/04 01:36:18;;;;;;;11.82;3.25;;;;;;;8.02;100.00;101686.50;5034837;28;20049;-71
2023/01/04 01:38:44;;;;;;;8.00;3.40;;;;;;;7.99;100.00;101686.63;5037457;28;20064;-71
2023/01/04 01:41:26;;;;;;;7.65;3.35;;;;;;;8.02;100.00;101681.19;5038122;28;20807;-70
2023/01/04 01:44:01;;;;;;;8.98;2.97;;;;;;;8.01;100.00;101673.28;5037422;28;20041;-71
2023/01/04 01:46:59;;;;;;;11.80;3.42;;;;;;;8.04;100.00;101684.66;5035085;28;20049;-71
2023/01/04 01:49:36;;;;;;;10.40;3.45;;;;;;;8.07;100.00;101664.22;4989610;28;20053;-71
2023/01/04 01:52:10;;;;;;;4.70;3.03;;;;;;;8.08;100.00;101666.78;5058747;28;20037;-71
2023/01/04 01:54:43;;;;;;;9.50;3.22;;;;;;;8.09;100.00;101657.91;5038373;28;20059;-72
2023/01/04 01:57:12;;;;;;;12.55;3.08;;;;;;;8.10;100.00;101664.09;5043650;28;20051;-71
2023/01/04 01:59:41;;;;;;;5.47;2.88;;;;;;;8.16;100.00;101670.03;5041298;28;20052;-70
2023/01/04 02:02:07;;;;;;;13.05;3.42;;;;;;;8.19;100.00;101675.22;5043609;28;20157;-71
2023/01/04 02:04:34;;;;;;;8.48;3.50;;;;;;;8.25;100.00;101674.97;5041845;28;20124;-71
2023/01/04 02:07:01;;;;;;;9.20;3.97;;;;;;;8.23;100.00;101652.03;5040857;28;20622;-71
2023/01/04 02:09:30;;;;;;;7.70;3.35;;;;;;;8.24;100.00;101632.53;5036725;28;20426;-71
2023/01/04 02:11:55;;;;;;;8.88;3.17;;;;;;;8.27;100.00;101648.31;5043477;28;21234;-71
2023/01/04 02:14:26;;;;;;;7.28;2.80;;;;;;;8.32;100.00;101649.00;5038777;28;20061;-71
2023/01/04 02:16:55;;;;;;;5.30;2.80;;;;;;;8.32;100.00;101631.25;5043039;28;20135;-71
2023/01/04 02:20:00;;;;;;;4.88;2.72;;;;;;;8.34;100.00;101630.34;5038942;28;20460;-71
2023/01/04 02:22:56;;;;;;;9.55;2.92;;;;;;;8.39;100.00;101623.09;5040632;28;20048;-70
2023/01/04 02:25:21;;;;;;;6.32;2.80;;;;;;;8.45;100.00;101636.97;5039672;28;20596;-72
2023/01/04 02:27:56;;;;;;;9.80;3.17;;;;;;;8.45;100.00;101626.34;5036438;28;20051;-71
2023/01/04 02:30:31;;;;;;;7.43;3.10;;;;;;;8.45;100.00;101613.06;5036616;28;20048;-71
2023/01/04 02:33:26;;;;;;;5.88;3.30;;;;;;;8.50;100.00;101615.53;5035290;28;20045;-71
2023/01/04 02:36:22;;;;;;;3.85;2.63;;;;;;;8.53;100.00;101613.63;5039816;28;20045;-71
2023/01/04 02:38:57;;;;;;;6.20;2.75;;;;;;;8.47;100.00;101605.00;5041257;28;20448;-71
2023/01/04 02:41:39;;;;;;;6.45;2.80;;;;;;;8.49;100.00;101593.41;5035774;28;20169;-70
2023/01/04 02:47:03;;;;;;;7.50;3.05;;;;;;;8.50;100.00;101589.81;5033763;28;20040;-71
2023/01/04 02:52:13;;;;;;;5.38;3.63;;;;;;;8.60;100.00;101584.09;5033502;28;20071;-70
2023/01/04 02:54:39;;;;;;;10.02;4.03;;;;;;;8.59;100.00;101577.06;5031620;28;20494;-70
2023/01/04 02:57:19;;;;;;;7.40;3.50;;;;;;;8.60;100.00;101571.66;5035202;28;20059;-71
2023/01/04 02:59:51;;;;;;;8.50;4.10;;;;;;;8.53;100.00;101568.44;5036690;28;20097;-70
2023/01/04 03:08:39;;;;;;;7.43;3.70;;;;;;;8.68;100.00;101563.34;5034314;28;20672;-71
2023/01/04 03:14:15;;;;;;;6.15;3.92;;;;;;;8.73;100.00;101558.69;5027591;28;20116;-72
2023/01/04 03:16:43;;;;;;;6.18;4.03;;;;;;;8.80;100.00;101554.84;5031998;28;20124;-71
2023/01/04 03:19:11;;;;;;;6.72;4.32;;;;;;;8.75;100.00;101540.88;5039595;28;20049;-71
2023/01/04 03:21:43;;;;;;;6.53;4.25;;;;;;;8.79;100.00;101539.81;5033284;28;20453;-70
2023/01/04 03:35:37;;;;;;;10.35;4.25;;;;;;;8.88;100.00;101507.47;5035956;28;20055;-71
2023/01/04 03:50:24;;;;;;;8.70;4.88;;;;;;;8.90;100.00;101495.00;5029117;28;20437;-70
2023/01/04 03:52:51;;;;;;;7.88;5.10;;;;;;;8.92;100.00;101501.09;5023053;28;20053;-73
2023/01/04 03:55:17;;;;;;;8.35;5.05;;;;;;;8.97;100.00;101498.22;5033006;28;20099;-71
2023/01/04 03:57:44;;;;;;;8.23;4.70;;;;;;;9.05;100.00;101501.41;5031719;28;20057;-73
2023/01/04 04:00:15;;;;;;;5.55;4.40;;;;;;;9.07;100.00;101499.50;5028100;28;20049;-70
2023/01/04 04:02:43;;;;;;;4.60;3.95;;;;;;;9.12;100.00;101491.31;5025076;28;20038;-70
2023/01/04 04:10:47;;;;;;;3.97;3.58;;;;;;;9.10;100.00;101478.09;5034955;28;20063;-73
2023/01/04 04:13:13;;;;;;;4.47;3.95;;;;;;;9.19;100.00;101464.38;5032070;28;20059;-70
2023/01/04 04:15:38;;;;;;;6.00;3.88;;;;;;;9.27;100.00;101472.84;5029894;28;20054;-73
2023/01/04 04:18:04;;;;;;;6.50;3.58;;;;;;;9.24;100.00;101477.47;5025836;28;20041;-70
2023/01/04 04:20:29;;;;;;;4.65;4.00;;;;;;;9.22;100.00;101480.16;5032965;28;20045;-71
2023/01/04 04:22:55;;;;;;;5.63;4.60;;;;;;;9.25;100.00;101471.19;5025101;28;20119;-71
2023/01/04 04:25:20;;;;;;;4.95;4.10;;;;;;;9.28;100.00;101473.69;5027146;28;20061;-74
2023/01/04 04:27:46;;;;;;;7.30;4.05;;;;;;;9.31;100.00;101473.56;5031689;28;20070;-72
2023/01/04 04:30:11;;;;;;;6.47;4.32;;;;;;;9.38;100.00;101485.63;5026178;28;20057;-72
2023/01/04 04:32:37;;;;;;;6.03;3.83;;;;;;;9.37;100.00;101472.41;5031496;28;20052;-72
2023/01/04 04:35:03;;;;;;;5.10;4.28;;;;;;;9.36;100.00;101468.00;5034428;28;20048;-71
2023/01/04 04:37:30;;;;;;;4.63;3.60;;;;;;;9.40;100.00;101469.59;5034083;28;20172;-73
2023/01/04 04:39:59;;;;;;;5.25;4.25;;;;;;;9.46;100.00;101470.16;5043728;28;20045;-73
2023/01/04 04:42:24;;;;;;;4.20;3.80;;;;;;;9.46;100.00;101466.63;5036316;28;20068;-70
2023/01/04 04:44:50;;;;;;;4.53;3.53;;;;;;;9.47;100.00;101457.69;5030582;28;20126;-70
2023/01/04 04:47:15;;;;;;;5.75;4.40;;;;;;;9.53;100.00;101458.25;5033846;28;20057;-73
2023/01/04 04:49:41;;;;;;;5.50;4.45;;;;;;;9.51;100.00;101444.16;5043700;28;20056;-71
2023/01/04 04:52:07;;;;;;;6.32;4.75;;;;;;;9.56;100.00;101452.78;5034217;28;20037;-70
2023/01/04 04:54:32;;;;;;;5.43;4.32;;;;;;;9.57;100.00;101454.50;5032493;28;20048;-70
2023/01/04 04:56:58;;;;;;;4.82;4.03;;;;;;;9.59;100.00;101452.66;5033038;28;20049;-70
2023/01/04 04:59:23;;;;;;;5.70;4.32;;;;;;;9.53;100.00;101452.94;5031556;28;20044;-70
2023/01/04 05:01:49;;;;;;;6.10;4.53;;;;;;;9.50;100.00;101453.09;5037405;28;20045;-71
2023/01/04 05:04:18;;;;;;;6.72;5.43;;;;;;;9.53;100.00;101460.06;5034202;28;20049;-70
2023/01/04 05:06:48;;;;;;;5.65;4.72;;;;;;;9.54;100.00;101448.50;5029514;28;20049;-70
2023/01/04 05:09:14;;;;;;;7.72;4.63;;;;;;;9.52;100.00;101450.34;5032178;28;20053;-71
2023/01/04 05:14:25;;;;;;;5.93;4.72;;;;;;;9.55;100.00;101445.75;5025245;28;20623;-71
2023/01/04 05:16:51;;;;;;;5.68;4.72;;;;;;;9.52;100.00;101442.38;5037988;28;20497;-70
2023/01/04 05:19:16;;;;;;;8.20;5.20;;;;;;;9.52;100.00;101442.38;5038718;28;20084;-71
2023/01/04 05:21:42;;;;;;;5.97;5.05;;;;;;;9.59;100.00;101447.31;5024552;28;20107;-70
2023/01/04 05:24:09;;;;;;;6.35;4.93;;;;;;;9.51;100.00;101453.97;5034650;28;20565;-70
2023/01/04 05:26:35;;;;;;;5.75;5.10;;;;;;;9.57;100.00;101443.84;5050752;28;20568;-71
2023/01/04 05:29:00;;;;;;;7.85;5.68;;;;;;;9.55;100.00;101432.44;5043891;28;20041;-71
2023/01/04 05:31:26;;;;;;;9.88;6.90;;;;;;;9.54;100.00;101433.38;5038454;28;20876;-70
2023/01/04 05:33:51;;;;;;;13.77;6.95;;;;;;;9.53;100.00;101425.44;5043224;28;20044;-73
2023/01/04 05:36:16;;;;;;;12.55;7.68;;;;;;;9.53;100.00;101423.63;5040826;28;20041;-72
2023/01/04 05:38:43;;;;;;;11.00;7.13;;;;;;;9.61;100.00;101412.63;5032696;28;20123;-70
2023/01/04 05:42:23;;;;;;;9.77;7.05;;;;;;;9.57;100.00;101411.91;5038295;28;20103;-72
2023/01/04 05:43:54;;;;;;;10.80;7.40;;;;;;;9.62;100.00;101406.34;5037131;28;20131;-73
2023/01/04 05:46:20;;;;;;;14.70;7.75;;;;;;;9.60;100.00;101408.25;5034300;28;20053;-72
2023/01/04 05:48:45;;;;;;;11.55;8.10;;;;;;;9.60;100.00;101402.91;5036647;28;20307;-69
2023/01/04 05:51:11;;;;;;;10.45;7.72;;;;;;;9.65;100.00;101400.03;5043006;28;20049;-70
2023/01/04 05:53:37;;;;;;;12.25;8.02;;;;;;;9.67;100.00;101392.81;5043682;28;20071;-71
2023/01/04 05:56:02;;;;;;;14.68;7.72;;;;;;;9.69;100.00;101396.25;5043570;28;20570;-71
2023/01/04 05:58:27;;;;;;;12.48;7.68;;;;;;;9.67;100.00;101391.00;5033853;28;20045;-72
2023/01/04 06:00:53;;;;;;;11.98;7.78;;;;;;;9.69;100.00;101385.59;5042417;28;20048;-71
2023/01/04 06:03:19;;;;;;;13.45;7.97;;;;;;;9.69;100.00;101381.16;5043227;28;20056;-71
2023/01/04 06:05:49;;;;;;;14.43;8.52;;;;;;;9.75;100.00;101379.97;5037201;28;20075;-71
2023/01/04 06:08:14;;;;;;;12.60;8.63;;;;;;;9.81;100.00;101383.19;5032372;28;20048;-71
2023/01/04 06:10:40;;;;;;;10.68;8.02;;;;;;;9.73;100.00;101377.38;5037638;28;20899;-71
2023/01/04 06:13:05;;;;;;;14.25;8.50;;;;;;;9.74;100.00;101376.47;5040783;28;20043;-71
2023/01/04 06:15:30;;;;;;;14.57;9.27;;;;;;;9.75;100.00;101378.19;5038414;28;20763;-71
2023/01/04 06:17:56;;;;;;;14.77;7.63;;;;;;;9.78;100.00;101385.97;5032503;28;20573;-71
2023/01/04 06:20:21;;;;;;;14.48;9.52;;;;;;;9.81;100.00;101374.31;5035547;28;20037;-71
2023/01/04 06:22:47;;;;;;;15.95;10.05;;;;;;;9.87;100.00;101374.00;5041235;28;20834;-70
2023/01/04 06:25:12;;;;;;;18.73;9.98;;;;;;;9.87;100.00;101379.34;5036477;28;20501;-70
2023/01/04 06:27:38;;;;;;;14.65;8.48;;;;;;;9.82;100.00;101376.03;5039252;28;20049;-71
2023/01/04 06:30:04;;;;;;;14.90;10.18;;;;;;;9.82;100.00;101366.25;5047961;28;20041;-71
2023/01/04 06:32:29;;;;;;;12.65;7.57;;;;;;;9.84;100.00;101366.19;5039492;28;20045;-70
2023/01/04 06:34:55;;;;;;;14.15;9.10;;;;;;;9.88;100.00;101380.19;5038106;28;20897;-72
2023/01/04 06:37:20;;;;;;;11.93;7.40;;;;;;;9.95;100.00;101382.47;5034520;28;20516;-70
2023/01/04 06:39:45;;;;;;;12.80;8.90;;;;;;;9.89;100.00;101369.47;5036564;28;20060;-71
2023/01/04 06:42:43;;;;;;;12.95;7.50;;;;;;;9.94;100.00;101372.75;5040816;28;20132;-70
2023/01/04 06:44:56;;;;;;;10.23;6.95;;;;;;;9.98;100.00;101387.63;5034362;28;20048;-71
2023/01/04 06:47:22;;;;;;;11.95;7.65;;;;;;;10.05;100.00;101378.38;5038637;28;20056;-71
2023/01/04 06:49:47;;;;;;;9.85;7.57;;;;;;;10.09;100.00;101379.06;5034810;28;20056;-70
2023/01/04 06:52:13;;;;;;;11.73;7.63;;;;;;;10.12;100.00;101382.44;5034630;28;20081;-70
2023/01/04 06:54:38;;;;;;;14.13;6.53;;;;;;;10.08;100.00;101367.53;5028551;28;20053;-70
2023/01/04 06:57:04;;;;;;;11.82;7.90;;;;;;;10.09;100.00;101347.09;5038461;28;20057;-70
2023/01/04 06:59:29;;;;;;;19.05;8.25;;;;;;;10.17;100.00;101360.00;5036807;28;20046;-71
2023/01/04 07:01:54;;;;;;;11.48;6.97;;;;;;;10.20;100.00;101354.53;5032446;28;20045;-70
2023/01/04 07:04:20;;;;;;;13.05;7.30;;;;;;;10.23;100.00;101365.00;5035386;28;20049;-70
2023/01/04 07:06:45;;;;;;;16.52;7.85;;;;;;;10.28;100.00;101360.31;5032856;28;20037;-70
2023/01/04 07:09:11;;;;;;;17.92;7.55;;;;;;;10.32;100.00;101357.41;5033115;28;20049;-70
2023/01/04 07:11:36;;;;;;;11.50;6.57;;;;;;;10.34;100.00;101355.53;5036359;28;20041;-70
2023/01/04 07:14:01;;;;;;;8.77;6.75;;;;;;;10.30;100.00;101350.47;5038227;28;20048;-70
2023/01/04 07:16:27;;;;;;;9.32;5.30;;;;;;;10.42;100.00;101338.25;5033469;28;20041;-71
2023/01/04 07:18:52;;;;;;;10.60;6.30;;;;;;;10.44;100.00;101350.56;5032409;28;20091;-70
2023/01/04 07:21:18;;;;;;;11.45;5.47;;;;;;;10.45;100.00;101340.78;5021117;28;20050;-70
2023/01/04 07:23:43;;;;;;;11.77;6.53;;;;;;;10.48;100.00;101341.44;5032582;28;20041;-71
2023/01/04 07:26:09;;;;;;;13.68;5.88;;;;;;;10.49;100.00;101329.84;5034408;28;20478;-71
2023/01/04 07:31:18;;;;;;;10.68;5.18;;;;;;;10.52;100.00;101319.00;5041020;28;20056;-71
2023/01/04 07:33:44;;;;;;;10.20;5.80;;;;;;;10.48;100.00;101328.09;5033537;28;20068;-70
2023/01/04 07:36:09;;;;;;;12.23;5.22;;;;;;;10.55;100.00;101323.31;5026985;28;20049;-71
2023/01/04 07:38:35;;;;;;;11.60;5.60;;;;;;;10.48;100.00;101314.78;5037847;28;20037;-71
2023/01/04 07:41:00;;;;;;;6.70;4.22;;;;;;;10.57;100.00;101308.94;5035084;28;20785;-70
2023/01/04 07:43:26;;;;;;;7.60;4.00;;;;;;;10.61;100.00;101313.16;5025599;28;20085;-70
2023/01/04 07:45:52;;;;;;;6.07;3.97;;;;;;;10.62;100.00;101303.34;5035828;28;20064;-71
2023/01/04 07:48:17;;;;;;;6.10;3.97;;;;;;;10.61;100.00;101305.16;5036488;28;20057;-71
2023/01/04 07:50:44;;;;;;;9.23;4.82;;;;;;;10.58;100.00;101297.31;5036769;28;20047;-71
2023/01/04 07:53:11;;;;;;;5.95;4.15;;;;;;;10.60;100.00;101286.59;5031821;28;20096;-73
2023/01/04 07:55:36;;;;;;;7.10;4.22;;;;;;;10.71;100.00;101288.66;5032109;28;20565;-72
2023/01/04 07:58:02;;;;;;;5.63;3.88;;;;;;;10.63;100.00;101273.06;5029660;28;20037;-72
2023/01/04 08:00:27;;;;;;;7.43;4.03;;;;;;;10.59;100.00;101267.06;5028266;28;20092;-71
2023/01/04 08:02:52;;;;;;;11.35;4.50;;;;;;;10.67;100.00;101268.41;5029119;28;20504;-71
2023/01/04 08:05:18;;;;;;;9.23;4.43;;;;;;;10.65;100.00;101262.31;5026858;28;20057;-71
2023/01/04 08:07:44;;;;;;;8.95;4.40;;;;;;;10.65;100.00;101265.00;5037171;28;20154;-72
2023/01/04 08:10:10;;;;;;;9.80;3.47;;;;;;;10.65;100.00;101257.00;5041950;28;20037;-73
2023/01/04 08:12:35;;;;;;;5.90;3.80;;;;;;;10.73;100.00;101252.91;5032142;28;20099;-71
2023/01/04 08:15:01;;;;;;;10.30;3.90;;;;;;;10.74;100.00;101267.09;5030875;28;20045;-72
2023/01/04 08:17:26;;;;;;;11.70;3.75;;;;;;;10.72;100.00;101266.34;5027815;28;20092;-73
2023/01/04 08:19:52;;;;;;;5.30;3.28;;;;;;;10.70;100.00;101268.25;5026857;28;20041;-71
2023/01/04 08:22:17;;;;;;;8.63;3.70;;;;;;;10.74;100.00;101272.44;5029473;28;20057;-73
2023/01/04 08:24:43;;;;;;;9.60;3.67;;;;;;;10.70;100.00;101274.44;5033248;28;20056;-70
2023/01/04 08:27:09;;;;;;;6.75;3.80;;;;;;;10.74;100.00;101278.63;5036169;28;20049;-71
2023/01/04 08:29:36;;;;;;;9.15;4.75;;;;;;;10.77;100.00;101278.47;5029607;28;20064;-70
2023/01/04 08:32:02;;;;;;;9.80;3.65;;;;;;;10.73;100.00;101282.25;5036144;28;20060;-70
2023/01/04 08:34:28;;;;;;;9.35;3.70;;;;;;;10.80;100.00;101272.97;5035432;28;20053;-70
2023/01/04 08:36:54;;;;;;;6.80;3.53;;;;;;;10.84;100.00;101278.97;5031239;28;20045;-70
2023/01/04 08:39:20;;;;;;;9.15;4.18;;;;;;;10.89;100.00;101274.22;5038399;28;20489;-71
2023/01/04 08:41:52;;;;;;;7.13;2.80;;;;;;;10.89;100.00;101271.56;5039436;28;20041;-70
2023/01/04 08:44:20;;;;;;;8.63;3.75;;;;;;;10.89;100.00;101288.47;5035034;28;20152;-71
2023/01/04 08:46:45;;;;;;;7.03;3.45;;;;;;;10.85;100.00;101278.91;5024341;28;20549;-73
2023/01/04 08:49:11;;;;;;;7.25;3.20;;;;;;;10.87;100.00;101286.81;5033735;28;20044;-70
2023/01/04 08:51:37;;;;;;;9.57;3.35;;;;;;;10.94;100.00;101284.63;5029309;28;20092;-70
2023/01/04 08:54:02;;;;;;;9.18;3.05;;;;;;;10.95;100.00;101281.91;5033351;28;20049;-70
2023/01/04 08:56:28;;;;;;;8.00;3.17;;;;;;;10.96;100.00;101272.09;5026948;28;20088;-70
2023/01/04 08:58:53;;;;;;;6.50;2.85;;;;;;;11.02;100.00;101279.72;5032516;28;20072;-71
2023/01/04 09:01:19;;;;;;;5.95;2.00;;;;;;;11.01;100.00;101278.88;5031732;28;20045;-71
2023/01/04 09:03:44;;;;;;;4.60;2.42;;;;;;;11.04;100.00;101281.34;5038065;28;20041;-71
2023/01/04 09:06:12;;;;;;;4.18;2.20;;;;;;;10.96;100.00;101278.28;5032921;28;20573;-71
2023/01/04 09:08:39;;;;;;;4.93;2.13;;;;;;;11.00;100.00;101268.31;5030477;28;20159;-70
2023/01/04 09:11:06;;;;;;;5.00;2.63;;;;;;;11.00;100.00;101269.16;5034098;28;20563;-70
2023/01/04 09:13:33;;;;;;;4.50;2.40;;;;;;;11.04;100.00;101262.66;5038822;28;20045;-70
2023/01/04 09:16:04;;;;;;;10.85;2.10;;;;;;;11.08;100.00;101253.53;5037020;28;20056;-71
2023/01/04 09:18:30;;;;;;;8.50;3.63;;;;;;;11.07;100.00;101250.97;5027583;28;20064;-75
2023/01/04 09:20:56;;;;;;;4.18;2.38;;;;;;;11.16;100.00;101250.44;5022830;28;20041;-71
2023/01/04 09:23:22;;;;;;;5.32;2.42;;;;;;;11.23;100.00;101251.78;5035336;28;20048;-71
2023/01/04 09:25:47;;;;;;;7.35;2.70;;;;;;;11.26;100.00;101250.75;5027038;28;20053;-70
2023/01/04 09:28:13;;;;;;;9.82;2.45;;;;;;;11.33;100.00;101228.06;5033119;28;20087;-71
2023/01/04 09:30:38;;;;;;;3.53;1.92;;;;;;;11.31;100.00;101236.16;5035730;28;20493;-70
2023/01/04 09:33:04;;;;;;;4.78;2.30;;;;;;;11.40;100.00;101250.78;5036016;28;20855;-71
2023/01/04 09:35:29;;;;;;;5.38;2.30;;;;;;;11.34;100.00;101272.47;5035957;28;20052;-71
2023/01/04 09:37:55;;;;;;;3.63;2.72;;;;;;;11.45;100.00;101254.03;5033086;28;20860;-71
2023/01/04 09:40:27;;;;;;;4.57;2.22;;;;;;;11.50;100.00;101243.94;5025636;28;20053;-71
2023/01/04 09:42:53;;;;;;;8.85;2.53;;;;;;;11.56;100.00;101248.88;5028327;28;20053;-70
2023/01/04 09:45:22;;;;;;;6.47;2.30;;;;;;;11.58;100.00;101260.31;5029067;28;20482;-72
2023/01/04 09:48:03;;;;;;;16.65;4.68;;;;;;;11.54;100.00;101260.59;5028159;28;20052;-71
2023/01/04 09:50:53;;;;;;;6.15;2.25;;;;;;;11.53;100.00;101256.22;5034335;28;20052;-72
2023/01/04 09:53:27;;;;;;;4.68;2.20;;;;;;;11.47;100.00;101276.16;5033693;28;20052;-71
2023/01/04 09:55:58;;;;;;;11.15;3.22;;;;;;;11.47;100.00;101276.16;5009854;28;20102;-70
2023/01/04 09:58:30;;;;;;;4.32;2.35;;;;;;;11.43;100.00;101269.25;5035598;28;20057;-71
2023/01/04 10:01:06;;;;;;;8.88;2.30;;;;;;;11.47;100.00;101285.97;5034113;28;20496;-71
2023/01/04 10:03:37;;;;;;;12.23;2.60;;;;;;;11.45;100.00;101283.41;5035333;28;20045;-71
2023/01/04 10:06:05;;;;;;;4.40;2.33;;;;;;;11.47;100.00;101268.13;5033447;28;20050;-71
2023/01/04 10:08:31;;;;;;;5.75;2.70;;;;;;;11.44;100.00;101300.34;5042589;28;20489;-72
2023/01/04 10:10:56;;;;;;;7.00;2.17;;;;;;;11.46;100.00;101297.63;5034388;28;20102;-71
2023/01/04 10:13:47;;;;;;;4.20;2.33;;;;;;;11.39;100.00;101299.78;5029707;28;20045;-71
2023/01/04 10:16:41;;;;;;;4.90;2.35;;;;;;;11.43;100.00;101301.31;5036982;28;20057;-71
2023/01/04 10:19:18;;;;;;;8.20;2.67;;;;;;;11.41;100.00;101314.75;5044546;28;20052;-71
2023/01/04 10:21:50;;;;;;;5.25;2.30;;;;;;;11.46;100.00;101308.28;5040707;28;20044;-71
2023/01/04 10:24:36;;;;;;;3.63;2.30;;;;;;;11.43;100.00;101298.63;5035135;28;20053;-70
2023/01/04 10:27:16;;;;;;;4.18;2.50;;;;;;;11.51;100.00;101298.19;5033721;28;20049;-71
2023/01/04 10:29:48;;;;;;;4.13;2.55;;;;;;;11.39;100.00;101302.44;5034850;28;20044;-71
2023/01/04 10:32:36;;;;;;;6.45;3.28;;;;;;;11.50;100.00;101301.81;5040821;28;20136;-71
2023/01/04 10:35:16;;;;;;;5.00;2.05;;;;;;;11.44;100.00;101308.38;5053683;28;20048;-71
2023/01/04 10:37:42;;;;;;;7.13;2.58;;;;;;;11.39;100.00;101310.44;5040837;28;20114;-71
2023/01/04 10:40:15;;;;;;;6.28;2.17;;;;;;;11.47;100.00;101297.50;5039672;28;20045;-70
2023/01/04 10:43:09;;;;;;;2.80;2.10;;;;;;;11.44;100.00;101287.00;5037815;28;20044;-71
2023/01/04 10:45:40;;;;;;;2.95;2.00;;;;;;;11.47;100.00;101294.00;5019332;28;20498;-71
2023/01/04 10:48:20;;;;;;;3.53;2.08;;;;;;;11.49;100.00;101290.25;5023849;28;20041;-71
2023/01/04 10:50:56;;;;;;;2.25;1.90;;;;;;;11.51;100.00;101295.53;5054263;28;20184;-71
2023/01/04 10:53:37;;;;;;;2.45;1.65;;;;;;;11.45;100.00;101295.91;5036074;28;20041;-71
2023/01/04 10:56:12;;;;;;;2.75;1.70;;;;;;;11.51;100.00;101292.84;5039213;28;20052;-71
2023/01/04 10:59:14;;;;;;;7.50;2.45;;;;;;;11.51;100.00;101293.72;5037962;28;20048;-71
2023/01/04 11:01:56;;;;;;;3.42;2.03;;;;;;;11.55;100.00;101299.75;5040963;28;20045;-71
2023/01/04 11:04:39;;;;;;;5.70;2.00;;;;;;;11.55;100.00;101279.22;5042101;28;20114;-71
2023/01/04 11:07:06;;;;;;;3.28;1.90;;;;;;;11.57;100.00;101276.47;5038939;28;20116;-71
2023/01/04 11:09:41;;;;;;;3.13;2.33;;;;;;;11.60;100.00;101273.63;5036630;28;20125;-71
2023/01/04 11:12:11;;;;;;;7.05;2.50;;;;;;;11.55;100.00;101273.03;5035920;28;20114;-71
2023/01/04 11:14:37;;;;;;;2.53;2.05;;;;;;;11.57;100.00;101260.44;5041267;28;20049;-71
2023/01/04 11:17:04;;;;;;;3.00;1.77;;;;;;;11.62;100.00;101266.34;5038092;28;20045;-71
2023/01/04 11:19:32;;;;;;;3.80;2.10;;;;;;;11.61;100.00;101268.16;5037882;28;20498;-71
2023/01/04 11:22:35;;;;;;;1.95;1.55;;;;;;;11.62;100.00;101259.19;5036944;28;20072;-71
2023/01/04 11:25:03;;;;;;;5.05;1.55;;;;;;;11.65;100.00;101260.84;5040163;28;20045;-71
2023/01/04 11:27:34;;;;;;;3.50;1.90;;;;;;;11.62;100.00;101253.84;5040549;28;20053;-71
2023/01/04 11:30:20;;;;;;;8.25;1.85;;;;;;;11.63;100.00;101247.56;5033923;28;20041;-71
2023/01/04 11:32:57;;;;;;;1.70;1.58;;;;;;;11.67;100.00;101241.06;5037585;28;20596;-71
2023/01/04 11:35:36;;;;;;;6.47;1.77;;;;;;;11.64;100.00;101249.25;5035950;28;20133;-72
2023/01/04 11:38:14;;;;;;;2.42;1.90;;;;;;;11.60;100.00;101237.06;5048741;28;20053;-71
2023/01/04 11:40:40;;;;;;;1.77;1.50;;;;;;;11.73;100.00;101233.63;5033274;28;20472;-71
2023/01/04 11:43:16;;;;;;;2.75;1.75;;;;;;;11.71;100.00;101227.53;5010031;28;20517;-71
2023/01/04 11:45:56;;;;;;;2.33;1.77;;;;;;;11.71;100.00;101227.53;5037678;28;20037;-71
2023/01/04 11:48:42;;;;;;;2.90;1.90;;;;;;;11.65;100.00;101226.97;5023656;28;20049;-71
2023/01/04 11:51:26;;;;;;;3.28;1.70;;;;;;;11.68;100.00;101225.91;5036327;28;20086;-72
2023/01/04 11:53:59;;;;;;;3.85;1.83;;;;;;;11.67;100.00;101227.72;5036084;28;20088;-71
2023/01/04 11:56:28;;;;;;;3.35;1.70;;;;;;;11.68;100.00;101224.09;5026188;28;20119;-71
2023/01/04 11:59:03;;;;;;;2.10;1.88;;;;;;;11.76;100.00;101215.59;5037551;28;20053;-71
2023/01/04 12:01:29;;;;;;;3.00;1.95;;;;;;;11.77;100.00;101197.75;5034397;28;20037;-71
2023/01/04 12:03:55;;;;;;;3.92;2.00;;;;;;;11.77;100.00;101209.31;5032737;28;20037;-71
2023/01/04 12:06:35;;;;;;;2.67;1.67;;;;;;;11.71;100.00;101198.16;5034949;28;20052;-70
2023/01/04 12:09:01;;;;;;;4.40;1.50;;;;;;;11.81;100.00;101197.47;5033387;28;20061;-71
2023/01/04 12:11:35;;;;;;;3.10;2.00;;;;;;;11.74;100.00;101196.13;5027820;28;20122;-70
2023/01/04 12:14:02;;;;;;;2.15;1.58;;;;;;;11.83;100.00;101190.25;5029032;28;20060;-71
2023/01/04 12:16:51;;;;;;;2.33;1.60;;;;;;;11.80;100.00;101195.75;5036836;28;20064;-70
2023/01/04 12:19:18;;;;;;;1.75;1.50;;;;;;;11.83;100.00;101208.94;5034585;28;20049;-70